Tecumseh — WTW9257 — position and weather

sailwx.info

Track history (hours):
 
Tides and Currents Weather Stations Pressure Air Temp Water Temp Dewpoint Dewpoint Depression Visibility Wind Speed Wind Dir Waves Ship Positions

Tecumseh

Owner: Sause Bros. Inc., COOS BAY, OR. More information available from US FCC via Universal Licensing System and Coast Guard Vessel Documentation Center.

Last reported at 2017-Feb-21 02:33 UTC. Time now 2017-Feb-21 03:04 UTC.
Position N 37°55' W 122°26'.

Length 90 m; draft 5 m.

Type: Towing. MMSI: 367133160.

Date/timePositionNaut miles runAvg speedWind from/ knotsBaromVisibWave heightAir tempDewpointWater temp
2017-Feb-21 02:33N 37°55' W 122°26'0 0.0
2017-Feb-21 01:33N 37°55' W 122°26'0 0.0
2017-Feb-21 00:33N 37°55' W 122°26'0 0.0
2017-Feb-20 23:33N 37°55' W 122°26'0 0.0
2017-Feb-20 22:33N 37°55' W 122°26'0 0.1
2017-Feb-20 21:33N 37°55' W 122°26'0 0.0
2017-Feb-20 20:33N 37°55' W 122°26'0 0.0
2017-Feb-20 19:33N 37°55' W 122°26'0 0.0
2017-Feb-20 18:33N 37°55' W 122°26'0 0.0
2017-Feb-20 17:33N 37°55' W 122°26'0 0.0
2017-Feb-20 16:33N 37°55' W 122°26'0 0.0
2017-Feb-20 15:33N 37°55' W 122°26'0 0.0
2017-Feb-20 14:33N 37°55' W 122°26'0 0.0
2017-Feb-20 13:33N 37°55' W 122°26'0 0.0
2017-Feb-20 12:33N 37°55' W 122°26'0 0.0
2017-Feb-20 11:33N 37°55' W 122°26'0 0.0
2017-Feb-20 10:33N 37°55' W 122°26'0 0.0
2017-Feb-20 09:33N 37°55' W 122°26'0 0.1
2017-Feb-20 08:34N 37°55' W 122°26'0 0.0
2017-Feb-20 07:33N 37°55' W 122°26'0 0.0
2017-Feb-20 06:33N 37°55' W 122°26'0 0.1
2017-Feb-20 05:33N 37°55' W 122°26'0 0.0
2017-Feb-20 04:33N 37°55' W 122°26'0 0.0
2017-Feb-20 03:33N 37°55' W 122°26'0 0.0
2017-Feb-20 02:33N 37°55' W 122°26'0 0.0
2017-Feb-20 01:33N 37°55' W 122°26'0 0.0
2017-Feb-20 00:33N 37°55' W 122°26'0 0.0
2017-Feb-19 23:33N 37°55' W 122°26'0 0.0
2017-Feb-19 22:33N 37°55' W 122°26'0 0.0
2017-Feb-19 21:33N 37°55' W 122°26'0 0.0
2017-Feb-19 20:33N 37°55' W 122°26'0 0.0
2017-Feb-19 19:33N 37°55' W 122°26'0 0.0
2017-Feb-19 18:33N 37°55' W 122°26'0 0.0
2017-Feb-19 17:33N 37°55' W 122°26'0 0.0
2017-Feb-19 16:33N 37°55' W 122°26'0 0.0
2017-Feb-19 15:33N 37°55' W 122°26'0 0.1
2017-Feb-19 14:33N 37°55' W 122°26'0 0.0
2017-Feb-19 13:33N 37°55' W 122°26'0 0.0
2017-Feb-19 12:33N 37°55' W 122°26'0 0.0
2017-Feb-19 11:33N 37°55' W 122°26'0 0.0
2017-Feb-19 10:33N 37°55' W 122°26'0 0.0
2017-Feb-19 09:34N 37°55' W 122°26'0 0.0
2017-Feb-19 08:33N 37°55' W 122°26'0 0.0
2017-Feb-19 07:33N 37°55' W 122°26'0 0.0
2017-Feb-19 06:33N 37°55' W 122°26'0 0.0
2017-Feb-19 05:33N 37°55' W 122°26'0 0.0
2017-Feb-19 04:34N 37°55' W 122°26'0 0.0
2017-Feb-19 03:33N 37°55' W 122°26'0 0.0
2017-Feb-19 02:33N 37°55' W 122°26'0 0.0
2017-Feb-19 01:33N 37°55' W 122°26'0 0.0
2017-Feb-19 00:33N 37°55' W 122°26'0 0.0
2017-Feb-18 23:33N 37°55' W 122°26'0 0.0
2017-Feb-18 22:33N 37°55' W 122°26'0 0.0
2017-Feb-18 21:33N 37°55' W 122°26'0 0.0
2017-Feb-18 20:33N 37°55' W 122°26'0 0.0
2017-Feb-18 19:34N 37°55' W 122°26'0 0.0
2017-Feb-18 18:33N 37°55' W 122°26'0 0.0
2017-Feb-18 17:33N 37°55' W 122°26'0 0.0
2017-Feb-18 16:33N 37°55' W 122°26'0 0.0
2017-Feb-18 15:33N 37°55' W 122°26'0 0.0
2017-Feb-18 14:33N 37°55' W 122°26'0 0.0
2017-Feb-18 13:33N 37°55' W 122°26'0 0.0
2017-Feb-18 12:33N 37°55' W 122°26'0 0.0
2017-Feb-18 11:34N 37°55' W 122°26'0 0.0
2017-Feb-18 10:34N 37°55' W 122°26'0 0.0
2017-Feb-18 09:33N 37°55' W 122°26'0 0.0
2017-Feb-18 08:34N 37°55' W 122°26'0 0.0
2017-Feb-18 07:33N 37°55' W 122°26'0 0.0
2017-Feb-18 06:33N 37°55' W 122°26'0 0.0
2017-Feb-18 05:33N 37°55' W 122°26'0 0.3
2017-Feb-18 04:33N 37°55' W 122°26'5 4.7
2017-Feb-18 03:33N 37°50' W 122°24'6 6.2
2017-Feb-18 02:33N 37°48' W 122°31'17 8.1
2017-Feb-18 00:28N 37°39' W 122°50'7 7.7
2017-Feb-17 23:33N 37°35' W 122°57'85 8.4
2017-Feb-17 13:28N 36°14' W 122°26'9 9.6
2017-Feb-17 12:33N 36°06' W 122°21'10 9.3
2017-Feb-17 11:31N 35°58' W 122°16'9 9.5
2017-Feb-17 10:33N 35°49' W 122°10'201 8.0
2017-Feb-16 09:33N 33°41' W 119°03'9 9.4
2017-Feb-16 08:34N 33°40' W 118°52'9 9.4
2017-Feb-16 07:33N 33°39' W 118°40'9 9.3
2017-Feb-16 06:33N 33°39' W 118°29'9 8.8
2017-Feb-16 05:34N 33°39' W 118°19'5 5.2
2017-Feb-16 04:34N 33°44' W 118°16'2 2.1
2017-Feb-16 03:33N 33°46' W 118°16'0 0.0
2017-Feb-16 02:33N 33°46' W 118°16'0 0.0
2017-Feb-16 01:33N 33°46' W 118°16'0 0.0
2017-Feb-16 00:33N 33°46' W 118°16'0 0.0
2017-Feb-15 23:33N 33°46' W 118°16'0 0.0
2017-Feb-15 22:31N 33°46' W 118°16'0 0.0
2017-Feb-15 21:34N 33°46' W 118°16'0 0.0
2017-Feb-15 20:33N 33°46' W 118°16'0 0.0
2017-Feb-15 19:34N 33°46' W 118°16'0 0.0
2017-Feb-15 18:34N 33°46' W 118°16'0 0.0
2017-Feb-15 17:33N 33°46' W 118°16'0 0.0
2017-Feb-15 16:34N 33°46' W 118°16'3 3.1
2017-Feb-15 15:34N 33°43' W 118°14'1 1.0
2017-Feb-15 14:33N 33°44' W 118°14'0 0.0
2017-Feb-15 13:34N 33°44' W 118°14'0 0.0
2017-Feb-15 12:31N 33°44' W 118°14'0 0.0
2017-Feb-15 11:33N 33°44' W 118°14'0 0.0
2017-Feb-15 10:34N 33°44' W 118°14'0 0.1
2017-Feb-15 09:33N 33°44' W 118°14'0 0.1
2017-Feb-15 08:34N 33°44' W 118°14'0 0.0
2017-Feb-15 07:34N 33°44' W 118°14'0 0.0
2017-Feb-15 06:34N 33°44' W 118°14'0 0.0
2017-Feb-15 05:30N 33°44' W 118°14'0 0.0
2017-Feb-15 04:28N 33°44' W 118°14'0 0.1
2017-Feb-15 03:34N 33°44' W 118°14'0 0.1
2017-Feb-15 02:33N 33°44' W 118°14'2 2.2
2017-Feb-15 01:33N 33°46' W 118°13'0 0.4
2017-Feb-15 00:34N 33°46' W 118°13'0 0.0
2017-Feb-14 23:33N 33°46' W 118°13'0 0.0
2017-Feb-14 19:34N 33°46' W 118°13'3 3.2
2017-Feb-14 18:34N 33°44' W 118°16'0 0.1
2017-Feb-14 17:33N 33°44' W 118°16'0 0.0
2017-Feb-14 16:34N 33°44' W 118°16'2 1.9
2017-Feb-14 15:34N 33°43' W 118°14'3 3.4
2017-Feb-14 14:33N 33°46' W 118°13'2 2.2
2017-Feb-14 13:33N 33°44' W 118°13'5 4.6
2017-Feb-14 12:33N 33°40' W 118°11'5 5.0
2017-Feb-14 11:34N 33°36' W 118°15'7 5.7
2017-Feb-14 10:23N 33°35' W 118°23'5 5.9
2017-Feb-14 09:33N 33°36' W 118°29'7 6.4
2017-Feb-14 08:31N 33°36' W 118°37'161 6.1
2017-Feb-13 06:04N 34°46' W 121°32'3 6.6
2017-Feb-13 05:33N 34°49' W 121°34'15 7.0
2017-Feb-13 03:24N 35°03' W 121°42'6 7.2
2017-Feb-13 02:33N 35°08' W 121°46'7 7.1
2017-Feb-13 01:33N 35°14' W 121°50'7 6.9
2017-Feb-13 00:33N 35°20' W 121°55'7 6.9
2017-Feb-12 23:33N 35°26' W 121°58'7 6.5
2017-Feb-12 22:33N 35°32' W 122°02'6 6.5
2017-Feb-12 21:33N 35°38' W 122°05'7 6.8
2017-Feb-12 20:33N 35°44' W 122°09'6 6.5
2017-Feb-12 19:33N 35°50' W 122°13'7 6.5
2017-Feb-12 18:33N 35°56' W 122°17'7 6.6
2017-Feb-12 17:33N 36°01' W 122°21'7 6.6
2017-Feb-12 16:33N 36°07' W 122°24'7 6.6
2017-Feb-12 15:33N 36°13' W 122°28'7 6.7
2017-Feb-12 14:33N 36°19' W 122°32'7 6.9
2017-Feb-12 13:33N 36°25' W 122°35'7 7.0
2017-Feb-12 12:33N 36°32' W 122°39'7 7.3
2017-Feb-12 11:33N 36°38' W 122°43'7 7.4
2017-Feb-12 10:33N 36°45' W 122°47'9 7.6
2017-Feb-12 09:19N 36°53' W 122°52'28 7.4
2017-Feb-12 05:33N 37°20' W 123°03'8 7.4
2017-Feb-12 04:32N 37°27' W 123°05'8 6.7
2017-Feb-12 03:23N 37°35' W 123°03'6 7.0
2017-Feb-12 02:34N 37°38' W 122°57'8 7.1
2017-Feb-12 01:29N 37°42' W 122°49'7 7.6
2017-Feb-12 00:32N 37°46' W 122°41'1010.0
2017-Feb-11 23:33N 37°49' W 122°29'7 6.8
2017-Feb-11 22:33N 37°55' W 122°26'1 0.8
2017-Feb-11 21:32N 37°55' W 122°25'0 0.1
2017-Feb-11 20:33N 37°55' W 122°25'0 0.0
2017-Feb-11 19:23N 37°55' W 122°25'0 0.0
2017-Feb-11 17:26N 37°55' W 122°25'0 0.0
2017-Feb-11 16:29N 37°55' W 122°25'0 0.0
2017-Feb-11 15:32N 37°55' W 122°25'0 0.0
2017-Feb-11 14:29N 37°55' W 122°25'0 0.0
2017-Feb-11 13:29N 37°55' W 122°25'0 0.0
2017-Feb-11 12:23N 37°55' W 122°25'0 0.0
2017-Feb-11 11:23N 37°55' W 122°25'0 0.0
2017-Feb-11 10:29N 37°55' W 122°25'0 0.0
2017-Feb-11 09:29N 37°55' W 122°25'0 0.0
2017-Feb-11 08:23N 37°55' W 122°25'0 0.0
2017-Feb-11 07:29N 37°55' W 122°25'0 0.0
2017-Feb-11 06:33N 37°55' W 122°25'0 0.5
2017-Feb-11 05:33N 37°55' W 122°25'4 3.6
2017-Feb-11 04:33N 37°52' W 122°24'5 4.8
2017-Feb-11 03:29N 37°48' W 122°21'  
Track history (hours):
 
Tides and Currents Weather Stations Pressure Air Temp Water Temp Dewpoint Dewpoint Depression Visibility Wind Speed Wind Dir Waves Ship Positions

Tecumseh

Owner: Sause Bros. Inc., COOS BAY, OR. More information available from US FCC via Universal Licensing System and Coast Guard Vessel Documentation Center.

Last reported at 2017-Feb-21 02:33 UTC. Time now 2017-Feb-21 03:04 UTC.
Position N 37°55' W 122°26'.

Length 90 m; draft 5 m.

Type: Towing. MMSI: 367133160.

Date/timePositionNaut miles runAvg speedWind from/ knotsBaromVisibWave heightAir tempDewpointWater temp
2017-Feb-21 02:33N 37°55' W 122°26'0 0.0
2017-Feb-21 01:33N 37°55' W 122°26'0 0.0
2017-Feb-21 00:33N 37°55' W 122°26'0 0.0
2017-Feb-20 23:33N 37°55' W 122°26'0 0.0
2017-Feb-20 22:33N 37°55' W 122°26'0 0.1
2017-Feb-20 21:33N 37°55' W 122°26'0 0.0
2017-Feb-20 20:33N 37°55' W 122°26'0 0.0
2017-Feb-20 19:33N 37°55' W 122°26'0 0.0
2017-Feb-20 18:33N 37°55' W 122°26'0 0.0
2017-Feb-20 17:33N 37°55' W 122°26'0 0.0
2017-Feb-20 16:33N 37°55' W 122°26'0 0.0
2017-Feb-20 15:33N 37°55' W 122°26'0 0.0
2017-Feb-20 14:33N 37°55' W 122°26'0 0.0
2017-Feb-20 13:33N 37°55' W 122°26'0 0.0
2017-Feb-20 12:33N 37°55' W 122°26'0 0.0
2017-Feb-20 11:33N 37°55' W 122°26'0 0.0
2017-Feb-20 10:33N 37°55' W 122°26'0 0.0
2017-Feb-20 09:33N 37°55' W 122°26'0 0.1
2017-Feb-20 08:34N 37°55' W 122°26'0 0.0
2017-Feb-20 07:33N 37°55' W 122°26'0 0.0
2017-Feb-20 06:33N 37°55' W 122°26'0 0.1
2017-Feb-20 05:33N 37°55' W 122°26'0 0.0
2017-Feb-20 04:33N 37°55' W 122°26'0 0.0
2017-Feb-20 03:33N 37°55' W 122°26'0 0.0
2017-Feb-20 02:33N 37°55' W 122°26'0 0.0
2017-Feb-20 01:33N 37°55' W 122°26'0 0.0
2017-Feb-20 00:33N 37°55' W 122°26'0 0.0
2017-Feb-19 23:33N 37°55' W 122°26'0 0.0
2017-Feb-19 22:33N 37°55' W 122°26'0 0.0
2017-Feb-19 21:33N 37°55' W 122°26'0 0.0
2017-Feb-19 20:33N 37°55' W 122°26'0 0.0
2017-Feb-19 19:33N 37°55' W 122°26'0 0.0
2017-Feb-19 18:33N 37°55' W 122°26'0 0.0
2017-Feb-19 17:33N 37°55' W 122°26'0 0.0
2017-Feb-19 16:33N 37°55' W 122°26'0 0.0
2017-Feb-19 15:33N 37°55' W 122°26'0 0.1
2017-Feb-19 14:33N 37°55' W 122°26'0 0.0
2017-Feb-19 13:33N 37°55' W 122°26'0 0.0
2017-Feb-19 12:33N 37°55' W 122°26'0 0.0
2017-Feb-19 11:33N 37°55' W 122°26'0 0.0
2017-Feb-19 10:33N 37°55' W 122°26'0 0.0
2017-Feb-19 09:34N 37°55' W 122°26'0 0.0
2017-Feb-19 08:33N 37°55' W 122°26'0 0.0
2017-Feb-19 07:33N 37°55' W 122°26'0 0.0
2017-Feb-19 06:33N 37°55' W 122°26'0 0.0
2017-Feb-19 05:33N 37°55' W 122°26'0 0.0
2017-Feb-19 04:34N 37°55' W 122°26'0 0.0
2017-Feb-19 03:33N 37°55' W 122°26'0 0.0
2017-Feb-19 02:33N 37°55' W 122°26'0 0.0
2017-Feb-19 01:33N 37°55' W 122°26'0 0.0
2017-Feb-19 00:33N 37°55' W 122°26'0 0.0
2017-Feb-18 23:33N 37°55' W 122°26'0 0.0
2017-Feb-18 22:33N 37°55' W 122°26'0 0.0
2017-Feb-18 21:33N 37°55' W 122°26'0 0.0
2017-Feb-18 20:33N 37°55' W 122°26'0 0.0
2017-Feb-18 19:34N 37°55' W 122°26'0 0.0
2017-Feb-18 18:33N 37°55' W 122°26'0 0.0
2017-Feb-18 17:33N 37°55' W 122°26'0 0.0
2017-Feb-18 16:33N 37°55' W 122°26'0 0.0
2017-Feb-18 15:33N 37°55' W 122°26'0 0.0
2017-Feb-18 14:33N 37°55' W 122°26'0 0.0
2017-Feb-18 13:33N 37°55' W 122°26'0 0.0
2017-Feb-18 12:33N 37°55' W 122°26'0 0.0
2017-Feb-18 11:34N 37°55' W 122°26'0 0.0
2017-Feb-18 10:34N 37°55' W 122°26'0 0.0
2017-Feb-18 09:33N 37°55' W 122°26'0 0.0
2017-Feb-18 08:34N 37°55' W 122°26'0 0.0
2017-Feb-18 07:33N 37°55' W 122°26'0 0.0
2017-Feb-18 06:33N 37°55' W 122°26'0 0.0
2017-Feb-18 05:33N 37°55' W 122°26'0 0.3
2017-Feb-18 04:33N 37°55' W 122°26'5 4.7
2017-Feb-18 03:33N 37°50' W 122°24'6 6.2
2017-Feb-18 02:33N 37°48' W 122°31'17 8.1
2017-Feb-18 00:28N 37°39' W 122°50'7 7.7
2017-Feb-17 23:33N 37°35' W 122°57'85 8.4
2017-Feb-17 13:28N 36°14' W 122°26'9 9.6
2017-Feb-17 12:33N 36°06' W 122°21'10 9.3
2017-Feb-17 11:31N 35°58' W 122°16'9 9.5
2017-Feb-17 10:33N 35°49' W 122°10'201 8.0
2017-Feb-16 09:33N 33°41' W 119°03'9 9.4
2017-Feb-16 08:34N 33°40' W 118°52'9 9.4
2017-Feb-16 07:33N 33°39' W 118°40'9 9.3
2017-Feb-16 06:33N 33°39' W 118°29'9 8.8
2017-Feb-16 05:34N 33°39' W 118°19'5 5.2
2017-Feb-16 04:34N 33°44' W 118°16'2 2.1
2017-Feb-16 03:33N 33°46' W 118°16'0 0.0
2017-Feb-16 02:33N 33°46' W 118°16'0 0.0
2017-Feb-16 01:33N 33°46' W 118°16'0 0.0
2017-Feb-16 00:33N 33°46' W 118°16'0 0.0
2017-Feb-15 23:33N 33°46' W 118°16'0 0.0
2017-Feb-15 22:31N 33°46' W 118°16'0 0.0
2017-Feb-15 21:34N 33°46' W 118°16'0 0.0
2017-Feb-15 20:33N 33°46' W 118°16'0 0.0
2017-Feb-15 19:34N 33°46' W 118°16'0 0.0
2017-Feb-15 18:34N 33°46' W 118°16'0 0.0
2017-Feb-15 17:33N 33°46' W 118°16'0 0.0
2017-Feb-15 16:34N 33°46' W 118°16'3 3.1
2017-Feb-15 15:34N 33°43' W 118°14'1 1.0
2017-Feb-15 14:33N 33°44' W 118°14'0 0.0
2017-Feb-15 13:34N 33°44' W 118°14'0 0.0
2017-Feb-15 12:31N 33°44' W 118°14'0 0.0
2017-Feb-15 11:33N 33°44' W 118°14'0 0.0
2017-Feb-15 10:34N 33°44' W 118°14'0 0.1
2017-Feb-15 09:33N 33°44' W 118°14'0 0.1
2017-Feb-15 08:34N 33°44' W 118°14'0 0.0
2017-Feb-15 07:34N 33°44' W 118°14'0 0.0
2017-Feb-15 06:34N 33°44' W 118°14'0 0.0
2017-Feb-15 05:30N 33°44' W 118°14'0 0.0
2017-Feb-15 04:28N 33°44' W 118°14'0 0.1
2017-Feb-15 03:34N 33°44' W 118°14'0 0.1
2017-Feb-15 02:33N 33°44' W 118°14'2 2.2
2017-Feb-15 01:33N 33°46' W 118°13'0 0.4
2017-Feb-15 00:34N 33°46' W 118°13'0 0.0
2017-Feb-14 23:33N 33°46' W 118°13'0 0.0
2017-Feb-14 19:34N 33°46' W 118°13'3 3.2
2017-Feb-14 18:34N 33°44' W 118°16'0 0.1
2017-Feb-14 17:33N 33°44' W 118°16'0 0.0
2017-Feb-14 16:34N 33°44' W 118°16'2 1.9
2017-Feb-14 15:34N 33°43' W 118°14'3 3.4
2017-Feb-14 14:33N 33°46' W 118°13'2 2.2
2017-Feb-14 13:33N 33°44' W 118°13'5 4.6
2017-Feb-14 12:33N 33°40' W 118°11'5 5.0
2017-Feb-14 11:34N 33°36' W 118°15'7 5.7
2017-Feb-14 10:23N 33°35' W 118°23'5 5.9
2017-Feb-14 09:33N 33°36' W 118°29'7 6.4
2017-Feb-14 08:31N 33°36' W 118°37'161 6.1
2017-Feb-13 06:04N 34°46' W 121°32'3 6.6
2017-Feb-13 05:33N 34°49' W 121°34'15 7.0
2017-Feb-13 03:24N 35°03' W 121°42'6 7.2
2017-Feb-13 02:33N 35°08' W 121°46'7 7.1
2017-Feb-13 01:33N 35°14' W 121°50'7 6.9
2017-Feb-13 00:33N 35°20' W 121°55'7 6.9
2017-Feb-12 23:33N 35°26' W 121°58'7 6.5
2017-Feb-12 22:33N 35°32' W 122°02'6 6.5
2017-Feb-12 21:33N 35°38' W 122°05'7 6.8
2017-Feb-12 20:33N 35°44' W 122°09'6 6.5
2017-Feb-12 19:33N 35°50' W 122°13'7 6.5
2017-Feb-12 18:33N 35°56' W 122°17'7 6.6
2017-Feb-12 17:33N 36°01' W 122°21'7 6.6
2017-Feb-12 16:33N 36°07' W 122°24'7 6.6
2017-Feb-12 15:33N 36°13' W 122°28'7 6.7
2017-Feb-12 14:33N 36°19' W 122°32'7 6.9
2017-Feb-12 13:33N 36°25' W 122°35'7 7.0
2017-Feb-12 12:33N 36°32' W 122°39'7 7.3
2017-Feb-12 11:33N 36°38' W 122°43'7 7.4
2017-Feb-12 10:33N 36°45' W 122°47'9 7.6
2017-Feb-12 09:19N 36°53' W 122°52'28 7.4
2017-Feb-12 05:33N 37°20' W 123°03'8 7.4
2017-Feb-12 04:32N 37°27' W 123°05'8 6.7
2017-Feb-12 03:23N 37°35' W 123°03'6 7.0
2017-Feb-12 02:34N 37°38' W 122°57'8 7.1
2017-Feb-12 01:29N 37°42' W 122°49'7 7.6
2017-Feb-12 00:32N 37°46' W 122°41'1010.0
2017-Feb-11 23:33N 37°49' W 122°29'7 6.8
2017-Feb-11 22:33N 37°55' W 122°26'1 0.8
2017-Feb-11 21:32N 37°55' W 122°25'0 0.1
2017-Feb-11 20:33N 37°55' W 122°25'0 0.0
2017-Feb-11 19:23N 37°55' W 122°25'0 0.0
2017-Feb-11 17:26N 37°55' W 122°25'0 0.0
2017-Feb-11 16:29N 37°55' W 122°25'0 0.0
2017-Feb-11 15:32N 37°55' W 122°25'0 0.0
2017-Feb-11 14:29N 37°55' W 122°25'0 0.0
2017-Feb-11 13:29N 37°55' W 122°25'0 0.0
2017-Feb-11 12:23N 37°55' W 122°25'0 0.0
2017-Feb-11 11:23N 37°55' W 122°25'0 0.0
2017-Feb-11 10:29N 37°55' W 122°25'0 0.0
2017-Feb-11 09:29N 37°55' W 122°25'0 0.0
2017-Feb-11 08:23N 37°55' W 122°25'0 0.0
2017-Feb-11 07:29N 37°55' W 122°25'0 0.0
2017-Feb-11 06:33N 37°55' W 122°25'0 0.5
2017-Feb-11 05:33N 37°55' W 122°25'4 3.6
2017-Feb-11 04:33N 37°52' W 122°24'5 4.8
2017-Feb-11 03:29N 37°48' W 122°21'  

Dump ship's entire track history